createdAt,value
2018-12-20T00:00:14.699Z,17.83
2018-12-20T00:02:42.393Z,17.63
2018-12-20T00:05:10.037Z,18.30
2018-12-20T00:07:42.219Z,19.00
2018-12-20T00:10:09.905Z,18.97
2018-12-20T00:12:37.578Z,17.57
2018-12-20T00:15:05.145Z,19.10
2018-12-20T00:17:38.442Z,19.23
2018-12-20T00:20:07.745Z,19.47
2018-12-20T00:22:35.241Z,19.43
2018-12-20T00:25:02.815Z,19.77
2018-12-20T00:27:30.415Z,21.63
2018-12-20T00:29:58.151Z,21.60
2018-12-20T00:32:25.826Z,19.00
2018-12-20T00:34:53.455Z,18.67
2018-12-20T00:37:21.158Z,20.20
2018-12-20T00:39:48.760Z,18.63
2018-12-20T00:42:16.464Z,18.97
2018-12-20T00:44:44.188Z,17.83
2018-12-20T00:47:16.152Z,19.70
2018-12-20T00:49:43.661Z,18.90
2018-12-20T00:52:11.427Z,20.33
2018-12-20T00:54:39.066Z,18.60
2018-12-20T00:57:06.869Z,19.40
2018-12-20T00:59:34.406Z,18.23
2018-12-20T01:02:02.947Z,18.30
2018-12-20T01:04:31.018Z,17.43
2018-12-20T01:06:58.745Z,15.87
2018-12-20T01:09:26.355Z,14.10
2018-12-20T01:11:53.902Z,13.60
2018-12-20T01:14:21.582Z,11.53
2018-12-20T01:16:49.075Z,11.90
2018-12-20T01:19:16.672Z,11.07
2018-12-20T01:21:45.208Z,10.37
2018-12-20T01:24:13.232Z,9.67
2018-12-20T01:26:40.813Z,8.93
2018-12-20T01:29:08.440Z,9.60
2018-12-20T01:31:35.946Z,8.87
2018-12-20T01:34:03.603Z,9.00
2018-12-20T01:36:31.293Z,9.10
2018-12-20T01:38:59.167Z,9.00
2018-12-20T01:41:26.811Z,9.73
2018-12-20T01:43:54.907Z,10.07
2018-12-20T01:46:22.521Z,9.00
2018-12-20T01:48:53.978Z,8.73
2018-12-20T01:51:22.523Z,8.87
2018-12-20T01:53:50.808Z,8.97
2018-12-20T01:56:18.513Z,9.27
2018-12-20T01:58:46.217Z,9.33
2018-12-20T02:01:14.190Z,10.87
2018-12-20T02:03:41.747Z,10.43
2018-12-20T02:06:10.875Z,10.33
2018-12-20T02:08:38.436Z,10.10
2018-12-20T02:11:06.062Z,9.93
2018-12-20T02:13:34.488Z,10.17
2018-12-20T02:16:02.491Z,10.37
2018-12-20T02:18:30.294Z,10.70
2018-12-20T02:20:57.971Z,12.47
2018-12-20T02:23:25.598Z,11.37
2018-12-20T02:25:53.149Z,11.37
2018-12-20T02:28:20.600Z,11.87
2018-12-20T02:30:48.091Z,12.80
2018-12-20T02:33:19.067Z,11.80
2018-12-20T02:35:46.805Z,11.77
2018-12-20T02:38:15.273Z,11.67
2018-12-20T02:40:43.034Z,11.30
2018-12-20T02:43:11.592Z,11.53
2018-12-20T02:46:05.031Z,11.30
2018-12-20T02:48:32.973Z,10.93
2018-12-20T02:51:00.767Z,10.80
2018-12-20T02:53:29.068Z,11.47
2018-12-20T02:55:57.581Z,10.83
2018-12-20T02:58:25.588Z,10.53
2018-12-20T03:00:57.565Z,10.90
2018-12-20T03:03:25.865Z,10.30
2018-12-20T03:05:53.589Z,10.73
2018-12-20T03:08:21.275Z,10.97
2018-12-20T03:10:48.753Z,11.40
2018-12-20T03:13:17.427Z,11.60
2018-12-20T03:15:45.092Z,10.63
2018-12-20T03:18:12.799Z,11.67
2018-12-20T03:20:41.279Z,11.90
2018-12-20T03:23:08.856Z,10.40
2018-12-20T03:25:37.312Z,11.37
2018-12-20T03:28:05.525Z,11.40
2018-12-20T03:30:34.297Z,10.67
2018-12-20T03:33:01.913Z,10.40
2018-12-20T03:35:29.490Z,9.80
2018-12-20T03:37:57.228Z,11.07
2018-12-20T03:40:24.840Z,10.53
2018-12-20T03:42:53.013Z,9.67
2018-12-20T03:45:28.622Z,10.90
2018-12-20T03:47:52.656Z,9.93
2018-12-20T03:50:20.262Z,10.03
2018-12-20T03:52:47.851Z,9.80
2018-12-20T03:55:15.467Z,9.80
2018-12-20T03:57:43.251Z,9.30
2018-12-20T04:00:12.097Z,8.57
2018-12-20T04:02:39.780Z,8.47
2018-12-20T04:05:07.581Z,8.57
2018-12-20T04:07:35.402Z,8.33
2018-12-20T04:10:03.766Z,8.03
2018-12-20T04:12:31.391Z,8.10
2018-12-20T04:14:58.910Z,8.07
2018-12-20T04:17:26.509Z,7.97
2018-12-20T04:19:56.575Z,8.17
2018-12-20T04:22:24.699Z,7.60
2018-12-20T04:24:53.225Z,8.57
2018-12-20T04:27:21.202Z,8.97
2018-12-20T04:29:49.355Z,8.47
2018-12-20T04:32:16.869Z,8.17
2018-12-20T04:34:44.427Z,7.70
2018-12-20T04:37:12.113Z,7.40
2018-12-20T04:39:39.766Z,7.07
2018-12-20T04:42:07.668Z,7.63
2018-12-20T04:44:35.345Z,7.43
2018-12-20T04:47:02.861Z,7.00
2018-12-20T04:49:30.328Z,8.00
2018-12-20T04:51:57.810Z,7.70
2018-12-20T04:54:25.273Z,6.33
2018-12-20T04:56:52.844Z,7.40
2018-12-20T04:59:20.769Z,7.50
2018-12-20T05:01:49.479Z,7.67
2018-12-20T05:04:17.143Z,6.67
2018-12-20T05:06:44.695Z,7.47
2018-12-20T05:09:12.253Z,7.60
2018-12-20T05:11:39.946Z,7.63
2018-12-20T05:14:07.567Z,7.43
2018-12-20T05:16:35.182Z,7.67
2018-12-20T05:19:02.790Z,7.80
2018-12-20T05:21:30.435Z,7.33
2018-12-20T05:23:57.961Z,7.27
2018-12-20T05:26:25.707Z,7.00
2018-12-20T05:28:53.405Z,6.07
2018-12-20T05:31:20.922Z,6.23
2018-12-20T05:33:48.889Z,5.90
2018-12-20T05:36:16.467Z,6.33
2018-12-20T05:38:44.753Z,6.23
2018-12-20T05:41:13.280Z,6.10
2018-12-20T05:43:41.988Z,6.50
2018-12-20T05:46:10.139Z,7.00
2018-12-20T05:48:37.677Z,7.60
2018-12-20T05:51:05.472Z,7.03
2018-12-20T05:53:33.416Z,7.27
2018-12-20T05:56:01.205Z,7.00
2018-12-20T05:58:29.030Z,7.90
2018-12-20T06:00:57.352Z,7.60
2018-12-20T06:03:25.151Z,7.10
2018-12-20T06:05:53.613Z,7.87
2018-12-20T06:08:21.270Z,7.97
2018-12-20T06:10:48.917Z,7.77
2018-12-20T06:13:16.365Z,7.60
2018-12-20T06:15:43.975Z,7.37
2018-12-20T06:18:11.678Z,7.70
2018-12-20T06:20:39.502Z,8.30
2018-12-20T06:23:07.227Z,8.30
2018-12-20T06:25:34.748Z,7.43
2018-12-20T06:28:02.293Z,7.73
2018-12-20T06:30:30.795Z,7.90
2018-12-20T06:33:00.277Z,7.73
2018-12-20T06:35:27.799Z,7.33
2018-12-20T06:37:56.749Z,8.00
2018-12-20T06:40:24.880Z,7.83
2018-12-20T06:42:52.423Z,7.03
2018-12-20T06:45:19.966Z,8.00
2018-12-20T06:47:47.729Z,7.90
2018-12-20T06:50:16.061Z,6.47
2018-12-20T06:52:43.607Z,6.67
2018-12-20T06:55:11.091Z,6.57
2018-12-20T06:57:39.105Z,6.43
2018-12-20T07:00:07.659Z,5.60
2018-12-20T07:02:38.524Z,6.30
2018-12-20T07:05:08.345Z,7.10
2018-12-20T07:07:37.106Z,6.07
2018-12-20T07:10:05.077Z,6.30
2018-12-20T07:12:33.613Z,6.07
2018-12-20T07:15:02.358Z,6.00
2018-12-20T07:17:29.942Z,5.50
2018-12-20T07:19:57.954Z,5.43
2018-12-20T07:22:25.475Z,6.23
2018-12-20T07:24:52.923Z,5.67
2018-12-20T07:27:21.032Z,5.40
2018-12-20T07:29:55.281Z,6.17
2018-12-20T07:32:25.331Z,5.53
2018-12-20T07:34:52.273Z,5.00
2018-12-20T07:37:19.806Z,6.00
2018-12-20T07:39:49.069Z,6.30
2018-12-20T07:42:17.349Z,6.00
2018-12-20T07:44:45.244Z,5.43
2018-12-20T07:47:12.701Z,6.33
2018-12-20T07:49:40.875Z,6.23
2018-12-20T07:52:08.402Z,6.07
2018-12-20T07:54:36.241Z,6.23
2018-12-20T07:57:03.721Z,5.57
2018-12-20T07:59:31.764Z,6.00
2018-12-20T08:01:59.232Z,7.10
2018-12-20T08:04:26.638Z,6.60
2018-12-20T08:06:54.306Z,6.27
2018-12-20T08:09:21.916Z,5.93
2018-12-20T08:11:50.101Z,5.30
2018-12-20T08:14:17.654Z,5.43
2018-12-20T08:16:46.113Z,6.60
2018-12-20T08:19:13.908Z,6.13
2018-12-20T08:21:41.373Z,7.50
2018-12-20T08:24:08.863Z,7.70
2018-12-20T08:26:37.254Z,7.87
2018-12-20T08:29:04.863Z,7.73
2018-12-20T08:31:32.483Z,7.43
2018-12-20T08:34:03.936Z,5.90
2018-12-20T08:36:33.565Z,6.73
2018-12-20T08:39:01.192Z,5.10
2018-12-20T08:41:28.808Z,5.40
2018-12-20T08:43:57.999Z,5.37
2018-12-20T08:46:25.558Z,4.30
2018-12-20T08:48:53.836Z,4.77
2018-12-20T08:51:21.436Z,4.50
2018-12-20T08:53:48.906Z,3.60
2018-12-20T08:56:16.573Z,3.53
2018-12-20T08:58:44.940Z,3.77
2018-12-20T09:01:12.472Z,3.93
2018-12-20T09:03:39.961Z,3.90
2018-12-20T09:06:07.793Z,3.67
2018-12-20T09:08:36.891Z,3.77
2018-12-20T09:11:04.417Z,3.63
2018-12-20T09:13:32.069Z,4.13
2018-12-20T09:15:59.583Z,4.00
2018-12-20T09:18:28.130Z,4.47
2018-12-20T09:21:00.291Z,3.37
2018-12-20T09:23:27.903Z,3.17
2018-12-20T09:25:55.687Z,3.50
2018-12-20T09:28:23.325Z,3.83
2018-12-20T09:30:51.000Z,3.57
2018-12-20T09:33:18.554Z,3.30
2018-12-20T09:35:46.273Z,3.70
2018-12-20T09:38:13.893Z,3.60
2018-12-20T09:40:41.510Z,3.40
2018-12-20T09:43:09.300Z,3.50
2018-12-20T09:45:37.056Z,2.80
2018-12-20T09:48:08.898Z,3.60
2018-12-20T09:50:36.425Z,3.03
2018-12-20T09:53:03.989Z,3.23
2018-12-20T09:55:31.498Z,3.00
2018-12-20T09:57:59.163Z,3.67
2018-12-20T10:00:26.635Z,3.67
2018-12-20T10:02:54.114Z,4.23
2018-12-20T10:05:21.877Z,4.03
2018-12-20T10:07:49.297Z,3.37
2018-12-20T10:10:17.185Z,3.70
2018-12-20T10:12:44.630Z,3.83
2018-12-20T10:15:12.845Z,4.47
2018-12-20T10:17:52.752Z,3.73
2018-12-20T10:20:20.967Z,3.33
2018-12-20T10:22:48.535Z,3.60
2018-12-20T10:25:16.034Z,3.33
2018-12-20T10:27:43.565Z,2.93
2018-12-20T10:30:11.126Z,3.07
2018-12-20T10:32:38.723Z,3.40
2018-12-20T10:35:06.326Z,3.07
2018-12-20T10:37:34.651Z,3.57
2018-12-20T10:40:03.247Z,3.43
2018-12-20T10:42:30.787Z,3.60
2018-12-20T10:44:58.463Z,4.67
2018-12-20T10:47:29.261Z,4.60
2018-12-20T10:49:56.520Z,5.67
2018-12-20T10:52:23.980Z,6.57
2018-12-20T10:54:51.506Z,6.40
2018-12-20T10:57:19.627Z,5.80
2018-12-20T10:59:48.961Z,6.87
2018-12-20T11:02:22.050Z,6.53
2018-12-20T11:04:59.081Z,5.83
2018-12-20T11:07:32.794Z,6.17
2018-12-20T11:10:06.300Z,5.87
2018-12-20T11:12:39.219Z,5.30
2018-12-20T11:15:07.254Z,4.77
2018-12-20T11:17:37.548Z,4.97
2018-12-20T11:20:05.777Z,5.00
2018-12-20T11:22:33.603Z,4.97
2018-12-20T11:25:01.061Z,6.50
2018-12-20T11:27:28.516Z,6.90
2018-12-20T11:29:56.357Z,6.47
2018-12-20T11:32:24.166Z,6.93
2018-12-20T11:34:51.691Z,6.43
2018-12-20T11:37:19.297Z,6.47
2018-12-20T11:39:46.825Z,7.07
2018-12-20T11:42:14.413Z,7.60
2018-12-20T11:44:41.976Z,6.47
2018-12-20T11:47:13.750Z,7.67
2018-12-20T11:49:41.603Z,6.40
2018-12-20T11:52:09.940Z,5.60
2018-12-20T11:54:38.965Z,6.20
2018-12-20T11:57:06.449Z,5.97
2018-12-20T11:59:34.060Z,6.77
2018-12-20T12:02:02.664Z,6.23
2018-12-20T12:04:30.279Z,5.37
2018-12-20T12:07:01.981Z,5.23
2018-12-20T12:09:29.686Z,5.23
2018-12-20T12:11:57.313Z,4.67
2018-12-20T12:14:25.134Z,5.17
2018-12-20T12:16:52.655Z,4.73
2018-12-20T12:22:27.205Z,4.63
2018-12-20T12:24:54.712Z,4.73
2018-12-20T12:27:26.863Z,4.07
2018-12-20T12:29:54.632Z,5.00
2018-12-20T12:32:22.529Z,4.50
2018-12-20T12:34:50.207Z,4.50
2018-12-20T12:37:24.302Z,4.20
2018-12-20T12:39:53.795Z,4.40
2018-12-20T12:42:25.765Z,5.20
2018-12-20T12:44:53.894Z,4.70
2018-12-20T12:47:25.807Z,4.63
2018-12-20T12:49:53.515Z,4.33
2018-12-20T12:52:21.033Z,5.30
2018-12-20T12:54:48.633Z,3.80
2018-12-20T12:57:16.616Z,4.30
2018-12-20T12:59:44.236Z,3.83
2018-12-20T13:02:11.810Z,3.63
2018-12-20T13:04:39.361Z,4.17
2018-12-20T13:07:06.904Z,3.80
2018-12-20T13:09:34.366Z,3.63
2018-12-20T13:12:02.984Z,4.17
2018-12-20T13:14:30.544Z,3.47
2018-12-20T13:16:58.563Z,3.37
2018-12-20T13:19:27.364Z,3.60
2018-12-20T13:21:54.847Z,3.00
2018-12-20T13:24:22.758Z,3.57
2018-12-20T13:26:50.393Z,3.80
2018-12-20T13:29:18.297Z,3.47
2018-12-20T13:31:45.866Z,3.73
2018-12-20T13:34:13.558Z,3.47
2018-12-20T13:36:41.029Z,3.47
2018-12-20T13:39:08.690Z,2.70
2018-12-20T13:41:36.249Z,2.97
2018-12-20T13:44:03.891Z,3.03
2018-12-20T13:46:31.781Z,2.73
2018-12-20T13:49:03.331Z,2.73
2018-12-20T13:51:30.967Z,2.80
2018-12-20T13:53:58.513Z,2.87
2018-12-20T13:56:26.118Z,2.73
2018-12-20T13:58:53.737Z,2.27
2018-12-20T14:01:21.227Z,3.03
2018-12-20T14:03:48.785Z,2.60
2018-12-20T14:06:18.739Z,3.13
2018-12-20T14:08:46.655Z,2.93
2018-12-20T14:11:14.894Z,3.00
2018-12-20T14:13:42.336Z,3.63
2018-12-20T14:16:10.149Z,3.10
2018-12-20T14:18:37.707Z,3.03
2018-12-20T14:21:05.738Z,2.63
2018-12-20T14:23:33.176Z,3.40
2018-12-20T14:26:01.128Z,3.17
2018-12-20T14:28:28.779Z,3.50
2018-12-20T14:30:56.203Z,3.03
2018-12-20T14:33:23.665Z,2.70
2018-12-20T14:35:51.152Z,3.30
2018-12-20T14:38:19.252Z,2.83
2018-12-20T14:40:46.699Z,2.73
2018-12-20T14:43:14.227Z,3.03
2018-12-20T14:45:42.668Z,3.47
2018-12-20T14:48:12.335Z,2.60
2018-12-20T14:50:39.800Z,3.23
2018-12-20T14:53:07.318Z,3.00
2018-12-20T14:55:34.767Z,2.90
2018-12-20T14:58:02.563Z,3.33
2018-12-20T15:00:31.292Z,3.67
2018-12-20T15:02:58.846Z,4.03
2018-12-20T15:05:26.978Z,3.50
2018-12-20T15:07:54.517Z,3.47
2018-12-20T15:10:21.987Z,3.40
2018-12-20T15:12:50.179Z,3.30
2018-12-20T15:15:18.524Z,3.50
2018-12-20T15:17:46.051Z,3.23
2018-12-20T15:20:13.652Z,2.97
2018-12-20T15:22:41.440Z,3.20
2018-12-20T15:25:09.219Z,3.37
2018-12-20T15:27:37.605Z,2.93
2018-12-20T15:30:05.232Z,3.03
2018-12-20T15:32:37.023Z,3.60
2018-12-20T15:35:04.668Z,2.80
2018-12-20T15:37:40.214Z,3.83
2018-12-20T15:40:09.120Z,2.83
2018-12-20T15:42:37.565Z,3.33
2018-12-20T15:45:09.260Z,3.03
2018-12-20T15:47:36.814Z,2.93
2018-12-20T15:50:05.754Z,2.73
2018-12-20T15:52:33.887Z,2.40
2018-12-20T15:55:01.430Z,2.70
2018-12-20T15:57:28.932Z,2.87
2018-12-20T15:59:56.430Z,2.80
2018-12-20T16:02:23.984Z,3.17
2018-12-20T16:04:51.516Z,3.30
2018-12-20T16:07:19.048Z,3.23
2018-12-20T16:09:46.541Z,3.47
2018-12-20T16:12:14.059Z,3.60
2018-12-20T16:14:41.590Z,2.70
2018-12-20T16:17:09.056Z,3.13
2018-12-20T16:19:36.497Z,3.07
2018-12-20T16:22:04.256Z,3.07
2018-12-20T16:24:31.793Z,3.60
2018-12-20T16:26:59.431Z,3.13
2018-12-20T16:29:26.915Z,3.70
2018-12-20T16:31:58.948Z,5.70
2018-12-20T16:34:26.435Z,4.73
2018-12-20T16:36:54.060Z,6.03
2018-12-20T16:39:21.700Z,5.83
2018-12-20T16:41:49.972Z,5.33
2018-12-20T16:44:17.805Z,6.93
2018-12-20T16:46:45.269Z,6.80
2018-12-20T16:49:18.584Z,6.50
2018-12-20T16:51:50.664Z,6.50
2018-12-20T16:54:18.136Z,6.53
2018-12-20T16:56:45.815Z,6.70
2018-12-20T16:59:13.389Z,6.10
2018-12-20T17:01:41.002Z,7.17
2018-12-20T17:04:08.685Z,6.97
2018-12-20T17:06:36.729Z,6.63
2018-12-20T17:09:06.554Z,7.57
2018-12-20T17:11:34.195Z,7.10
2018-12-20T17:14:03.182Z,7.47
2018-12-20T17:16:30.734Z,8.37
2018-12-20T17:18:58.375Z,7.80
2018-12-20T17:21:29.995Z,7.47
2018-12-20T17:23:57.501Z,7.63
2018-12-20T17:26:26.094Z,8.23
2018-12-20T17:28:53.637Z,7.40
2018-12-20T17:31:21.228Z,6.90
2018-12-20T17:33:48.756Z,6.70
2018-12-20T17:36:16.256Z,8.17
2018-12-20T17:38:44.755Z,8.40
2018-12-20T17:41:12.216Z,8.27
2018-12-20T17:43:40.128Z,9.27
2018-12-20T17:46:07.677Z,9.77
2018-12-20T17:48:35.243Z,10.63
2018-12-20T17:51:02.829Z,11.20
2018-12-20T17:53:30.361Z,10.33
2018-12-20T17:55:58.006Z,11.10
2018-12-20T17:58:25.644Z,11.53
2018-12-20T18:00:54.228Z,11.63
2018-12-20T18:03:22.137Z,10.90
2018-12-20T18:05:50.336Z,10.27
2018-12-20T18:08:18.577Z,11.63
2018-12-20T18:10:46.142Z,10.40
2018-12-20T18:13:13.819Z,10.13
2018-12-20T18:15:42.500Z,9.30
2018-12-20T18:18:10.106Z,9.60
2018-12-20T18:20:40.882Z,8.47
2018-12-20T18:23:08.783Z,9.10
2018-12-20T18:25:36.576Z,9.20
2018-12-20T18:28:04.280Z,9.37
2018-12-20T18:30:33.643Z,8.13
2018-12-20T18:33:01.304Z,8.63
2018-12-20T18:35:29.264Z,7.27
2018-12-20T18:37:57.232Z,6.63
2018-12-20T18:40:29.014Z,7.30
2018-12-20T18:42:56.645Z,7.33
2018-12-20T18:45:25.072Z,6.30
2018-12-20T18:48:00.748Z,7.97
2018-12-20T18:50:30.532Z,6.83
2018-12-20T18:53:02.241Z,6.80
2018-12-20T18:55:35.064Z,7.23
2018-12-20T18:58:03.501Z,6.90
2018-12-20T19:00:32.853Z,6.80
2018-12-20T19:03:04.259Z,6.73
2018-12-20T19:05:33.929Z,7.27
2018-12-20T19:08:04.507Z,6.73
2018-12-20T19:10:37.195Z,7.20
2018-12-20T19:13:05.727Z,6.73
2018-12-20T19:15:34.282Z,8.00
2018-12-20T19:18:05.672Z,6.17
2018-12-20T19:20:33.344Z,6.50
2018-12-20T19:23:01.124Z,6.27
2018-12-20T19:25:28.642Z,6.13
2018-12-20T19:27:56.256Z,6.87
2018-12-20T19:30:24.437Z,6.40
2018-12-20T19:32:52.284Z,6.37
2018-12-20T19:35:19.860Z,6.10
2018-12-20T19:37:47.415Z,6.93
2018-12-20T19:40:19.138Z,5.93
2018-12-20T19:42:47.619Z,6.03
2018-12-20T19:45:15.310Z,5.40
2018-12-20T19:47:48.689Z,5.13
2018-12-20T19:50:16.999Z,5.20
2018-12-20T19:52:44.622Z,4.73
2018-12-20T19:55:12.313Z,4.80
2018-12-20T19:57:44.615Z,4.30
2018-12-20T20:00:13.380Z,3.80
2018-12-20T20:02:41.033Z,3.70
2018-12-20T20:05:09.942Z,4.53
2018-12-20T20:07:38.359Z,3.23
2018-12-20T20:10:06.776Z,3.47
2018-12-20T20:12:34.602Z,3.07
2018-12-20T20:15:06.362Z,2.87
2018-12-20T20:17:33.909Z,2.93
2018-12-20T20:20:01.470Z,2.67
2018-12-20T20:22:30.711Z,3.00
2018-12-20T20:24:58.321Z,2.87
2018-12-20T20:27:26.472Z,2.90
2018-12-20T20:29:54.883Z,2.93
2018-12-20T20:32:22.519Z,3.47
2018-12-20T20:34:50.002Z,3.33
2018-12-20T20:37:18.295Z,3.00
2018-12-20T20:39:49.894Z,2.90
2018-12-20T20:42:17.923Z,2.87
2018-12-20T20:44:45.475Z,3.13
2018-12-20T20:47:13.068Z,3.10
2018-12-20T20:49:45.357Z,2.83
2018-12-20T20:52:15.869Z,2.73
2018-12-20T20:54:44.231Z,2.30
2018-12-20T20:57:12.970Z,2.30
2018-12-20T20:59:40.707Z,2.60
2018-12-20T21:02:08.599Z,2.83
2018-12-20T21:04:36.244Z,2.27
2018-12-20T21:07:05.943Z,3.30
2018-12-20T21:09:33.575Z,3.20
2018-12-20T21:12:01.507Z,4.67
2018-12-20T21:14:29.263Z,4.17
2018-12-20T21:16:58.233Z,6.30
2018-12-20T21:19:26.531Z,5.93
2018-12-20T21:21:54.212Z,5.57
2018-12-20T21:24:21.781Z,6.47
2018-12-20T21:26:53.945Z,7.17
2018-12-20T21:29:21.509Z,6.73
2018-12-20T21:31:49.364Z,6.50
2018-12-20T21:34:24.862Z,6.53
2018-12-20T21:36:52.405Z,6.13
2018-12-20T21:39:21.149Z,6.30
2018-12-20T21:41:48.754Z,6.20
2018-12-20T21:44:16.355Z,6.00
2018-12-20T21:46:44.922Z,6.67
2018-12-20T21:49:12.511Z,6.43
2018-12-20T21:51:41.280Z,6.37
2018-12-20T21:54:13.227Z,5.67
2018-12-20T21:56:43.100Z,6.00
2018-12-20T21:59:12.235Z,5.67
2018-12-20T22:01:39.667Z,6.30
2018-12-20T22:04:07.838Z,6.83
2018-12-20T22:06:35.857Z,6.57
2018-12-20T22:09:04.632Z,6.37
2018-12-20T22:11:32.366Z,7.37
2018-12-20T22:14:00.078Z,6.20
2018-12-20T22:16:27.740Z,5.90
2018-12-20T22:18:55.474Z,6.90
2018-12-20T22:21:23.369Z,6.37
2018-12-20T22:23:55.285Z,5.97
2018-12-20T22:26:25.019Z,6.10
2018-12-20T22:28:52.753Z,7.20
2018-12-20T22:31:21.093Z,5.90
2018-12-20T22:33:48.628Z,5.47
2018-12-20T22:36:16.167Z,5.57
2018-12-20T22:38:43.964Z,5.43
2018-12-20T22:41:11.921Z,5.27
2018-12-20T22:43:39.797Z,4.70
2018-12-20T22:46:07.518Z,5.20
2018-12-20T22:48:35.282Z,4.93
2018-12-20T22:51:02.851Z,5.20
2018-12-20T22:53:30.640Z,4.40
2018-12-20T22:55:58.687Z,4.10
2018-12-20T22:58:26.157Z,4.67
2018-12-20T23:00:55.746Z,4.10
2018-12-20T23:03:23.325Z,4.90
2018-12-20T23:05:51.747Z,4.63
2018-12-20T23:08:20.025Z,4.20
2018-12-20T23:10:48.765Z,4.50
2018-12-20T23:13:17.178Z,3.17
2018-12-20T23:15:45.172Z,3.47
2018-12-20T23:18:12.850Z,3.47
2018-12-20T23:20:40.340Z,3.17
2018-12-20T23:23:07.925Z,3.47
2018-12-20T23:25:42.042Z,4.03
2018-12-20T23:28:09.934Z,3.03
2018-12-20T23:30:41.831Z,4.27
2018-12-20T23:33:09.313Z,4.23
2018-12-20T23:35:36.737Z,3.50
2018-12-20T23:38:04.190Z,3.17
2018-12-20T23:40:32.464Z,3.13
2018-12-20T23:42:59.985Z,3.00
2018-12-20T23:45:27.422Z,3.60
2018-12-20T23:47:54.865Z,3.80
2018-12-20T23:50:22.346Z,3.17
2018-12-20T23:52:49.773Z,3.53
2018-12-20T23:55:17.919Z,3.83
2018-12-20T23:57:45.478Z,4.00
